Etusivu
METAR-TAF:

METAR-TAF

Lentoasemat :

Sogndal, Norja

Leveyspiiri: 61-09N, Pituuspiiri: 007-08E, korkeus merenpinnasta: 49 m

Tämänhetkinen sää

Tämä raportti tehtiin 54 minuuttia sitten, kello 05.50 UTC
Tuuli 1 kn eri suunnista
Lämpötila 8°C
Kosteus 100%
Ilmanpaine 1012 hPa
Näkyvyys 10 km tai enemmän
Muutamia pilviä 3800 ft:n korkeudessa

METAR: ENSG 240550Z VRB01KT 9999 FEW038 08/08 Q1012 RMK WIND 3806FT 31004KT

Aika: 08:44 (06:44 UTC)


TAF: puuttuu

Säähavainnot ja -ennusteet yli 4000 lentoasemalta (METAR- ja TAF-raportit).

Käytössä olevat sääasemat on merkitty karttaan keltaisilla ja punaisilla pisteillä.

Aseta hiiri pisteen päälle nähdäksesi sääaseman nimen.

Klikkaa sitten nähdäksesi säähavainnot ja -ennusteet.

Kartan vaihtaminen: klikkaa mustalla rastilla varustettuja vihreitä pisteitä, niin voit zoomata sisään; viivalla varustettua vihreää pistettä, niin voit zoomata ulos tai vihreitä nuolia, niin pääset viereisille kartoille.


METAR-TAF: